sensor_id;sensor_type;location;lat;lon;timestamp;temperature;humidity
7720;DHT22;3902;49.474;8.616;2023-02-18T00:00:55;12.20;99.90
7720;DHT22;3902;49.474;8.616;2023-02-18T00:03:23;12.20;99.90
7720;DHT22;3902;49.474;8.616;2023-02-18T00:05:49;12.20;99.90
7720;DHT22;3902;49.474;8.616;2023-02-18T00:08:15;12.20;99.90
7720;DHT22;3902;49.474;8.616;2023-02-18T00:10:41;12.20;99.90
7720;DHT22;3902;49.474;8.616;2023-02-18T00:13:06;12.20;99.90
7720;DHT22;3902;49.474;8.616;2023-02-18T00:15:34;12.30;99.90
7720;DHT22;3902;49.474;8.616;2023-02-18T00:18:00;12.30;99.90
7720;DHT22;3902;49.474;8.616;2023-02-18T00:20:25;12.20;99.90
7720;DHT22;3902;49.474;8.616;2023-02-18T00:22:51;12.20;99.90
7720;DHT22;3902;49.474;8.616;2023-02-18T00:25:16;12.20;99.90
7720;DHT22;3902;49.474;8.616;2023-02-18T00:27:42;12.20;99.90
7720;DHT22;3902;49.474;8.616;2023-02-18T00:30:08;12.20;99.90
7720;DHT22;3902;49.474;8.616;2023-02-18T00:32:34;12.20;99.90
7720;DHT22;3902;49.474;8.616;2023-02-18T00:35:00;12.20;99.90
7720;DHT22;3902;49.474;8.616;2023-02-18T00:37:25;12.30;99.90
7720;DHT22;3902;49.474;8.616;2023-02-18T00:39:51;12.30;99.90
7720;DHT22;3902;49.474;8.616;2023-02-18T00:42:16;12.20;99.90
7720;DHT22;3902;49.474;8.616;2023-02-18T00:44:42;12.30;99.90
7720;DHT22;3902;49.474;8.616;2023-02-18T00:47:08;12.20;99.90
7720;DHT22;3902;49.474;8.616;2023-02-18T00:49:33;12.30;99.90
7720;DHT22;3902;49.474;8.616;2023-02-18T00:51:59;12.30;99.90
7720;DHT22;3902;49.474;8.616;2023-02-18T00:54:24;12.30;99.90
7720;DHT22;3902;49.474;8.616;2023-02-18T00:56:50;12.30;99.90
7720;DHT22;3902;49.474;8.616;2023-02-18T00:59:16;12.30;99.90
7720;DHT22;3902;49.474;8.616;2023-02-18T01:01:41;12.30;99.90
7720;DHT22;3902;49.474;8.616;2023-02-18T01:04:06;12.30;99.90
7720;DHT22;3902;49.474;8.616;2023-02-18T01:06:32;12.30;99.90
7720;DHT22;3902;49.474;8.616;2023-02-18T01:08:58;12.30;99.90
7720;DHT22;3902;49.474;8.616;2023-02-18T01:11:24;12.30;99.90
7720;DHT22;3902;49.474;8.616;2023-02-18T01:13:50;12.30;99.90
7720;DHT22;3902;49.474;8.616;2023-02-18T01:16:16;12.30;99.90
7720;DHT22;3902;49.474;8.616;2023-02-18T01:18:42;12.40;99.90
7720;DHT22;3902;49.474;8.616;2023-02-18T01:21:08;12.40;99.90
7720;DHT22;3902;49.474;8.616;2023-02-18T01:23:37;12.40;99.90
7720;DHT22;3902;49.474;8.616;2023-02-18T01:26:04;12.40;99.90
7720;DHT22;3902;49.474;8.616;2023-02-18T01:28:29;12.50;99.90
7720;DHT22;3902;49.474;8.616;2023-02-18T01:30:55;12.50;99.90
7720;DHT22;3902;49.474;8.616;2023-02-18T01:33:21;12.50;99.90
7720;DHT22;3902;49.474;8.616;2023-02-18T01:35:47;12.50;99.90
7720;DHT22;3902;49.474;8.616;2023-02-18T01:38:12;12.50;99.90
7720;DHT22;3902;49.474;8.616;2023-02-18T01:40:47;12.50;99.90
7720;DHT22;3902;49.474;8.616;2023-02-18T01:43:14;12.50;99.90
7720;DHT22;3902;49.474;8.616;2023-02-18T01:45:56;12.50;99.90
7720;DHT22;3902;49.474;8.616;2023-02-18T01:51:09;12.50;99.90
7720;DHT22;3902;49.474;8.616;2023-02-18T01:53:44;12.50;99.90
7720;DHT22;3902;49.474;8.616;2023-02-18T01:56:15;12.50;99.90
7720;DHT22;3902;49.474;8.616;2023-02-18T01:58:42;12.50;99.90
7720;DHT22;3902;49.474;8.616;2023-02-18T02:01:08;12.50;99.90
7720;DHT22;3902;49.474;8.616;2023-02-18T02:03:34;12.50;99.90
7720;DHT22;3902;49.474;8.616;2023-02-18T02:06:00;12.40;99.90
7720;DHT22;3902;49.474;8.616;2023-02-18T02:08:26;12.40;99.90
7720;DHT22;3902;49.474;8.616;2023-02-18T02:14:00;12.40;99.90
7720;DHT22;3902;49.474;8.616;2023-02-18T02:16:39;12.40;99.90
7720;DHT22;3902;49.474;8.616;2023-02-18T02:22:36;12.40;99.90
7720;DHT22;3902;49.474;8.616;2023-02-18T02:25:19;12.40;99.90
7720;DHT22;3902;49.474;8.616;2023-02-18T02:34:14;12.30;99.90
7720;DHT22;3902;49.474;8.616;2023-02-18T02:36:52;12.40;99.90
7720;DHT22;3902;49.474;8.616;2023-02-18T02:39:40;12.40;99.90
7720;DHT22;3902;49.474;8.616;2023-02-18T02:42:36;12.40;99.90
7720;DHT22;3902;49.474;8.616;2023-02-18T02:45:25;12.40;99.90
7720;DHT22;3902;49.474;8.616;2023-02-18T02:53:05;12.40;99.90
7720;DHT22;3902;49.474;8.616;2023-02-18T02:55:35;12.40;99.90
7720;DHT22;3902;49.474;8.616;2023-02-18T02:58:00;12.30;99.90
7720;DHT22;3902;49.474;8.616;2023-02-18T03:06:19;12.30;99.90
7720;DHT22;3902;49.474;8.616;2023-02-18T03:08:59;12.30;99.90
7720;DHT22;3902;49.474;8.616;2023-02-18T03:11:28;12.30;99.90
7720;DHT22;3902;49.474;8.616;2023-02-18T03:14:14;12.30;99.90
7720;DHT22;3902;49.474;8.616;2023-02-18T03:24:27;12.30;99.90
7720;DHT22;3902;49.474;8.616;2023-02-18T03:26:58;12.30;99.90
7720;DHT22;3902;49.474;8.616;2023-02-18T03:29:27;12.30;99.90
7720;DHT22;3902;49.474;8.616;2023-02-18T03:32:00;12.30;99.90
7720;DHT22;3902;49.474;8.616;2023-02-18T03:34:30;12.30;99.90
7720;DHT22;3902;49.474;8.616;2023-02-18T03:36:57;12.30;99.90
7720;DHT22;3902;49.474;8.616;2023-02-18T03:39:26;12.30;99.90
7720;DHT22;3902;49.474;8.616;2023-02-18T03:41:53;12.30;99.90
7720;DHT22;3902;49.474;8.616;2023-02-18T03:44:19;12.30;99.90
7720;DHT22;3902;49.474;8.616;2023-02-18T03:46:45;12.30;99.90
7720;DHT22;3902;49.474;8.616;2023-02-18T03:49:12;12.40;99.90
7720;DHT22;3902;49.474;8.616;2023-02-18T03:51:38;12.40;99.90
7720;DHT22;3902;49.474;8.616;2023-02-18T03:54:04;12.40;99.90
7720;DHT22;3902;49.474;8.616;2023-02-18T03:56:29;12.40;99.90
7720;DHT22;3902;49.474;8.616;2023-02-18T03:58:55;12.40;99.90
7720;DHT22;3902;49.474;8.616;2023-02-18T04:01:20;12.40;99.90
7720;DHT22;3902;49.474;8.616;2023-02-18T04:03:46;12.40;99.90
7720;DHT22;3902;49.474;8.616;2023-02-18T04:06:11;12.40;99.90
7720;DHT22;3902;49.474;8.616;2023-02-18T04:08:37;12.40;99.90
7720;DHT22;3902;49.474;8.616;2023-02-18T04:11:03;12.40;99.90
7720;DHT22;3902;49.474;8.616;2023-02-18T04:13:29;12.40;99.90
7720;DHT22;3902;49.474;8.616;2023-02-18T04:15:55;12.40;99.90
7720;DHT22;3902;49.474;8.616;2023-02-18T04:18:21;12.40;99.90
7720;DHT22;3902;49.474;8.616;2023-02-18T04:20:47;12.40;99.90
7720;DHT22;3902;49.474;8.616;2023-02-18T04:23:13;12.40;99.90
7720;DHT22;3902;49.474;8.616;2023-02-18T04:25:39;12.40;99.90
7720;DHT22;3902;49.474;8.616;2023-02-18T04:28:05;12.40;99.90
7720;DHT22;3902;49.474;8.616;2023-02-18T04:30:30;12.40;99.90
7720;DHT22;3902;49.474;8.616;2023-02-18T04:32:56;12.40;99.90
7720;DHT22;3902;49.474;8.616;2023-02-18T04:35:21;12.40;99.90
7720;DHT22;3902;49.474;8.616;2023-02-18T04:37:47;12.40;99.90
7720;DHT22;3902;49.474;8.616;2023-02-18T04:40:13;12.40;99.90
7720;DHT22;3902;49.474;8.616;2023-02-18T04:42:39;12.40;99.90
7720;DHT22;3902;49.474;8.616;2023-02-18T04:45:04;12.40;99.90
7720;DHT22;3902;49.474;8.616;2023-02-18T04:47:30;12.40;99.90
7720;DHT22;3902;49.474;8.616;2023-02-18T04:49:56;12.40;99.90
7720;DHT22;3902;49.474;8.616;2023-02-18T04:52:21;12.40;99.90
7720;DHT22;3902;49.474;8.616;2023-02-18T04:54:47;12.40;99.90
7720;DHT22;3902;49.474;8.616;2023-02-18T04:57:12;12.40;99.90
7720;DHT22;3902;49.474;8.616;2023-02-18T04:59:38;12.40;99.90
7720;DHT22;3902;49.474;8.616;2023-02-18T05:02:04;12.40;99.90
7720;DHT22;3902;49.474;8.616;2023-02-18T05:04:30;12.40;99.90
7720;DHT22;3902;49.474;8.616;2023-02-18T05:06:56;12.40;99.90
7720;DHT22;3902;49.474;8.616;2023-02-18T05:09:21;12.40;99.90
7720;DHT22;3902;49.474;8.616;2023-02-18T05:11:47;12.40;99.90
7720;DHT22;3902;49.474;8.616;2023-02-18T05:14:13;12.40;99.90
7720;DHT22;3902;49.474;8.616;2023-02-18T05:16:39;12.30;99.90
7720;DHT22;3902;49.474;8.616;2023-02-18T05:19:04;12.30;99.90
7720;DHT22;3902;49.474;8.616;2023-02-18T05:21:31;12.30;99.90
7720;DHT22;3902;49.474;8.616;2023-02-18T05:23:56;12.30;99.90
7720;DHT22;3902;49.474;8.616;2023-02-18T05:26:22;12.40;99.90
7720;DHT22;3902;49.474;8.616;2023-02-18T05:28:48;12.40;99.90
7720;DHT22;3902;49.474;8.616;2023-02-18T05:31:14;12.30;99.90
7720;DHT22;3902;49.474;8.616;2023-02-18T05:33:39;12.30;99.90
7720;DHT22;3902;49.474;8.616;2023-02-18T05:36:05;12.30;99.90
7720;DHT22;3902;49.474;8.616;2023-02-18T05:38:30;12.30;99.90
7720;DHT22;3902;49.474;8.616;2023-02-18T05:40:56;12.40;99.90
7720;DHT22;3902;49.474;8.616;2023-02-18T05:43:21;12.40;99.90
7720;DHT22;3902;49.474;8.616;2023-02-18T05:45:47;12.40;99.90
7720;DHT22;3902;49.474;8.616;2023-02-18T05:48:12;12.40;99.90
7720;DHT22;3902;49.474;8.616;2023-02-18T05:50:38;12.40;99.90
7720;DHT22;3902;49.474;8.616;2023-02-18T05:53:05;12.40;99.90
7720;DHT22;3902;49.474;8.616;2023-02-18T05:55:31;12.40;99.90
7720;DHT22;3902;49.474;8.616;2023-02-18T05:57:57;12.40;99.90
7720;DHT22;3902;49.474;8.616;2023-02-18T06:00:23;12.40;99.90
7720;DHT22;3902;49.474;8.616;2023-02-18T06:02:49;12.40;99.90
7720;DHT22;3902;49.474;8.616;2023-02-18T06:05:14;12.40;99.90
7720;DHT22;3902;49.474;8.616;2023-02-18T06:07:40;12.40;99.90
7720;DHT22;3902;49.474;8.616;2023-02-18T06:10:06;12.40;99.90
7720;DHT22;3902;49.474;8.616;2023-02-18T06:12:32;12.40;99.90
7720;DHT22;3902;49.474;8.616;2023-02-18T06:14:57;12.30;99.90
7720;DHT22;3902;49.474;8.616;2023-02-18T06:17:23;12.30;99.90
7720;DHT22;3902;49.474;8.616;2023-02-18T06:19:48;12.30;99.90
7720;DHT22;3902;49.474;8.616;2023-02-18T06:22:14;12.30;99.90
7720;DHT22;3902;49.474;8.616;2023-02-18T06:24:40;12.40;99.90
7720;DHT22;3902;49.474;8.616;2023-02-18T06:27:06;12.40;99.90
7720;DHT22;3902;49.474;8.616;2023-02-18T06:29:31;12.40;99.90
7720;DHT22;3902;49.474;8.616;2023-02-18T06:31:58;12.40;99.90
7720;DHT22;3902;49.474;8.616;2023-02-18T06:34:24;12.40;99.90
7720;DHT22;3902;49.474;8.616;2023-02-18T06:36:49;12.40;99.90
7720;DHT22;3902;49.474;8.616;2023-02-18T06:39:15;12.40;99.90
7720;DHT22;3902;49.474;8.616;2023-02-18T06:41:40;12.40;99.90
7720;DHT22;3902;49.474;8.616;2023-02-18T06:44:06;12.40;99.90
7720;DHT22;3902;49.474;8.616;2023-02-18T06:46:31;12.40;99.90
7720;DHT22;3902;49.474;8.616;2023-02-18T06:48:57;12.40;99.90
7720;DHT22;3902;49.474;8.616;2023-02-18T06:51:23;12.40;99.90
7720;DHT22;3902;49.474;8.616;2023-02-18T06:53:48;12.40;99.90
7720;DHT22;3902;49.474;8.616;2023-02-18T06:56:14;12.30;99.90
7720;DHT22;3902;49.474;8.616;2023-02-18T06:58:40;12.30;99.90
7720;DHT22;3902;49.474;8.616;2023-02-18T07:01:05;12.40;99.90
7720;DHT22;3902;49.474;8.616;2023-02-18T07:03:31;12.40;99.90
7720;DHT22;3902;49.474;8.616;2023-02-18T07:05:56;12.40;99.90
7720;DHT22;3902;49.474;8.616;2023-02-18T07:08:22;12.40;99.90
7720;DHT22;3902;49.474;8.616;2023-02-18T07:10:47;12.40;99.90
7720;DHT22;3902;49.474;8.616;2023-02-18T07:13:14;12.40;99.90
7720;DHT22;3902;49.474;8.616;2023-02-18T07:15:40;12.40;99.90
7720;DHT22;3902;49.474;8.616;2023-02-18T07:18:05;12.40;99.90
7720;DHT22;3902;49.474;8.616;2023-02-18T07:20:31;12.40;99.90
7720;DHT22;3902;49.474;8.616;2023-02-18T07:22:57;12.40;99.90
7720;DHT22;3902;49.474;8.616;2023-02-18T07:25:23;12.40;99.90
7720;DHT22;3902;49.474;8.616;2023-02-18T07:27:49;12.40;99.90
7720;DHT22;3902;49.474;8.616;2023-02-18T07:30:16;12.30;99.90
7720;DHT22;3902;49.474;8.616;2023-02-18T07:32:42;12.30;99.90
7720;DHT22;3902;49.474;8.616;2023-02-18T07:35:10;12.40;99.90
7720;DHT22;3902;49.474;8.616;2023-02-18T07:37:37;12.40;99.90
7720;DHT22;3902;49.474;8.616;2023-02-18T07:40:02;12.30;99.90
7720;DHT22;3902;49.474;8.616;2023-02-18T07:42:28;12.40;99.90
7720;DHT22;3902;49.474;8.616;2023-02-18T07:44:54;12.30;99.90
7720;DHT22;3902;49.474;8.616;2023-02-18T07:47:19;12.30;99.90
7720;DHT22;3902;49.474;8.616;2023-02-18T07:49:45;12.30;99.90
7720;DHT22;3902;49.474;8.616;2023-02-18T07:52:12;12.40;99.90
7720;DHT22;3902;49.474;8.616;2023-02-18T07:54:37;12.40;99.90
7720;DHT22;3902;49.474;8.616;2023-02-18T07:57:03;12.30;99.90
7720;DHT22;3902;49.474;8.616;2023-02-18T07:59:28;12.40;99.90
7720;DHT22;3902;49.474;8.616;2023-02-18T08:01:54;12.40;99.90
7720;DHT22;3902;49.474;8.616;2023-02-18T08:04:19;12.40;99.90
7720;DHT22;3902;49.474;8.616;2023-02-18T08:06:47;12.40;99.90
7720;DHT22;3902;49.474;8.616;2023-02-18T08:09:13;12.40;99.90
7720;DHT22;3902;49.474;8.616;2023-02-18T08:11:39;12.40;99.90
7720;DHT22;3902;49.474;8.616;2023-02-18T08:14:05;12.40;99.90
7720;DHT22;3902;49.474;8.616;2023-02-18T08:16:30;12.40;99.90
7720;DHT22;3902;49.474;8.616;2023-02-18T08:18:56;12.40;99.90
7720;DHT22;3902;49.474;8.616;2023-02-18T08:21:23;12.40;99.90
7720;DHT22;3902;49.474;8.616;2023-02-18T08:23:49;12.50;99.90
7720;DHT22;3902;49.474;8.616;2023-02-18T08:26:16;12.50;99.90
7720;DHT22;3902;49.474;8.616;2023-02-18T08:28:43;12.50;99.90
7720;DHT22;3902;49.474;8.616;2023-02-18T08:31:15;12.50;99.90
7720;DHT22;3902;49.474;8.616;2023-02-18T08:33:42;12.50;99.90
7720;DHT22;3902;49.474;8.616;2023-02-18T08:36:08;12.60;99.90
7720;DHT22;3902;49.474;8.616;2023-02-18T08:38:34;12.60;99.90
7720;DHT22;3902;49.474;8.616;2023-02-18T08:41:02;12.60;99.90
7720;DHT22;3902;49.474;8.616;2023-02-18T08:43:28;12.60;99.90
7720;DHT22;3902;49.474;8.616;2023-02-18T08:45:53;12.60;99.90
7720;DHT22;3902;49.474;8.616;2023-02-18T08:48:19;12.60;99.90
7720;DHT22;3902;49.474;8.616;2023-02-18T08:50:44;12.70;99.90
7720;DHT22;3902;49.474;8.616;2023-02-18T08:53:10;12.70;99.90
7720;DHT22;3902;49.474;8.616;2023-02-18T08:55:35;12.70;99.90
7720;DHT22;3902;49.474;8.616;2023-02-18T08:58:04;12.70;99.90
7720;DHT22;3902;49.474;8.616;2023-02-18T09:00:31;12.70;99.90
7720;DHT22;3902;49.474;8.616;2023-02-18T09:02:56;12.70;99.90
7720;DHT22;3902;49.474;8.616;2023-02-18T09:05:22;12.70;99.90
7720;DHT22;3902;49.474;8.616;2023-02-18T09:07:47;12.70;99.90
7720;DHT22;3902;49.474;8.616;2023-02-18T09:10:13;12.80;99.90
7720;DHT22;3902;49.474;8.616;2023-02-18T09:12:38;12.80;99.90
7720;DHT22;3902;49.474;8.616;2023-02-18T09:15:04;12.80;99.90
7720;DHT22;3902;49.474;8.616;2023-02-18T09:17:30;12.80;99.90
7720;DHT22;3902;49.474;8.616;2023-02-18T09:19:56;12.80;99.90
7720;DHT22;3902;49.474;8.616;2023-02-18T09:22:21;12.80;99.90
7720;DHT22;3902;49.474;8.616;2023-02-18T09:24:47;12.90;99.90
7720;DHT22;3902;49.474;8.616;2023-02-18T09:27:12;12.90;99.90
7720;DHT22;3902;49.474;8.616;2023-02-18T09:29:39;12.90;99.90
7720;DHT22;3902;49.474;8.616;2023-02-18T09:32:06;12.90;99.90
7720;DHT22;3902;49.474;8.616;2023-02-18T09:34:32;12.90;99.90
7720;DHT22;3902;49.474;8.616;2023-02-18T09:36:57;12.90;99.90
7720;DHT22;3902;49.474;8.616;2023-02-18T09:39:23;12.90;99.90
7720;DHT22;3902;49.474;8.616;2023-02-18T09:42:00;12.90;99.90
7720;DHT22;3902;49.474;8.616;2023-02-18T09:44:31;13.00;99.90
7720;DHT22;3902;49.474;8.616;2023-02-18T09:49:30;13.10;99.90
7720;DHT22;3902;49.474;8.616;2023-02-18T09:54:48;13.10;99.90
7720;DHT22;3902;49.474;8.616;2023-02-18T09:57:25;13.10;99.90
7720;DHT22;3902;49.474;8.616;2023-02-18T09:59:58;13.10;99.90
7720;DHT22;3902;49.474;8.616;2023-02-18T10:02:26;13.20;99.90
7720;DHT22;3902;49.474;8.616;2023-02-18T10:04:52;13.20;99.90
7720;DHT22;3902;49.474;8.616;2023-02-18T10:07:30;13.20;99.90
7720;DHT22;3902;49.474;8.616;2023-02-18T10:10:02;13.20;99.90
7720;DHT22;3902;49.474;8.616;2023-02-18T10:12:29;13.20;99.90
7720;DHT22;3902;49.474;8.616;2023-02-18T10:14:59;13.30;99.90
7720;DHT22;3902;49.474;8.616;2023-02-18T10:17:27;13.30;99.90
7720;DHT22;3902;49.474;8.616;2023-02-18T10:19:55;13.30;99.90
7720;DHT22;3902;49.474;8.616;2023-02-18T10:22:24;13.30;99.90
7720;DHT22;3902;49.474;8.616;2023-02-18T10:24:59;13.30;99.90
7720;DHT22;3902;49.474;8.616;2023-02-18T10:27:32;13.30;99.90
7720;DHT22;3902;49.474;8.616;2023-02-18T10:32:46;13.30;99.90
7720;DHT22;3902;49.474;8.616;2023-02-18T10:41:46;13.40;99.90
7720;DHT22;3902;49.474;8.616;2023-02-18T10:44:50;13.40;99.90
7720;DHT22;3902;49.474;8.616;2023-02-18T10:47:44;13.40;99.90
7720;DHT22;3902;49.474;8.616;2023-02-18T10:50:24;13.50;99.90
7720;DHT22;3902;49.474;8.616;2023-02-18T10:52:52;13.50;99.90
7720;DHT22;3902;49.474;8.616;2023-02-18T10:55:42;13.50;99.90
7720;DHT22;3902;49.474;8.616;2023-02-18T10:58:33;13.50;99.90
7720;DHT22;3902;49.474;8.616;2023-02-18T11:01:00;13.40;99.90
7720;DHT22;3902;49.474;8.616;2023-02-18T11:03:50;13.50;99.90
7720;DHT22;3902;49.474;8.616;2023-02-18T11:06:31;13.50;99.90
7720;DHT22;3902;49.474;8.616;2023-02-18T11:08:59;13.50;99.90
7720;DHT22;3902;49.474;8.616;2023-02-18T11:11:31;13.50;99.90
7720;DHT22;3902;49.474;8.616;2023-02-18T11:14:00;13.60;99.90
7720;DHT22;3902;49.474;8.616;2023-02-18T11:16:43;13.50;99.90
7720;DHT22;3902;49.474;8.616;2023-02-18T11:19:36;13.50;99.90
7720;DHT22;3902;49.474;8.616;2023-02-18T11:22:22;13.50;99.90
7720;DHT22;3902;49.474;8.616;2023-02-18T11:24:53;13.50;99.90
7720;DHT22;3902;49.474;8.616;2023-02-18T11:27:31;13.50;99.90
7720;DHT22;3902;49.474;8.616;2023-02-18T11:30:04;13.60;99.90
7720;DHT22;3902;49.474;8.616;2023-02-18T11:32:33;13.60;99.90
7720;DHT22;3902;49.474;8.616;2023-02-18T11:35:00;13.70;99.90
7720;DHT22;3902;49.474;8.616;2023-02-18T11:37:26;13.60;99.90
7720;DHT22;3902;49.474;8.616;2023-02-18T11:39:53;13.70;99.90
7720;DHT22;3902;49.474;8.616;2023-02-18T11:42:22;13.70;99.90
7720;DHT22;3902;49.474;8.616;2023-02-18T11:44:57;13.60;99.90
7720;DHT22;3902;49.474;8.616;2023-02-18T11:47:24;13.70;99.90
7720;DHT22;3902;49.474;8.616;2023-02-18T11:52:48;14.30;99.90
7720;DHT22;3902;49.474;8.616;2023-02-18T11:55:21;14.50;99.90
7720;DHT22;3902;49.474;8.616;2023-02-18T12:02:44;15.20;99.90
7720;DHT22;3902;49.474;8.616;2023-02-18T12:05:24;15.20;99.90
7720;DHT22;3902;49.474;8.616;2023-02-18T12:10:29;15.00;99.90
7720;DHT22;3902;49.474;8.616;2023-02-18T12:13:06;14.90;99.90
7720;DHT22;3902;49.474;8.616;2023-02-18T12:18:26;14.80;99.90
7720;DHT22;3902;49.474;8.616;2023-02-18T12:26:28;15.40;99.90
7720;DHT22;3902;49.474;8.616;2023-02-18T12:29:13;15.60;99.90
7720;DHT22;3902;49.474;8.616;2023-02-18T12:32:11;15.90;99.90
7720;DHT22;3902;49.474;8.616;2023-02-18T12:35:12;15.80;99.90
7720;DHT22;3902;49.474;8.616;2023-02-18T12:40:42;15.50;99.90
7720;DHT22;3902;49.474;8.616;2023-02-18T12:55:05;15.10;99.90
7720;DHT22;3902;49.474;8.616;2023-02-18T12:57:35;15.10;99.90
7720;DHT22;3902;49.474;8.616;2023-02-18T13:00:29;15.10;99.90
7720;DHT22;3902;49.474;8.616;2023-02-18T13:03:38;14.90;99.90
7720;DHT22;3902;49.474;8.616;2023-02-18T13:08:49;14.70;99.90
7720;DHT22;3902;49.474;8.616;2023-02-18T13:11:27;14.50;99.90
7720;DHT22;3902;49.474;8.616;2023-02-18T13:16:34;14.40;99.90
7720;DHT22;3902;49.474;8.616;2023-02-18T13:19:15;14.30;99.90
7720;DHT22;3902;49.474;8.616;2023-02-18T13:21:43;14.30;99.90
7720;DHT22;3902;49.474;8.616;2023-02-18T13:24:15;14.20;99.90
7720;DHT22;3902;49.474;8.616;2023-02-18T13:26:45;14.10;99.90
7720;DHT22;3902;49.474;8.616;2023-02-18T13:29:23;14.10;99.90
7720;DHT22;3902;49.474;8.616;2023-02-18T13:34:26;14.10;99.90
7720;DHT22;3902;49.474;8.616;2023-02-18T13:37:15;14.00;99.90
7720;DHT22;3902;49.474;8.616;2023-02-18T13:39:49;14.00;99.90
7720;DHT22;3902;49.474;8.616;2023-02-18T13:47:42;14.00;99.90
7720;DHT22;3902;49.474;8.616;2023-02-18T13:50:15;14.00;99.90
7720;DHT22;3902;49.474;8.616;2023-02-18T13:52:51;14.00;99.90
7720;DHT22;3902;49.474;8.616;2023-02-18T13:55:25;14.00;99.90
7720;DHT22;3902;49.474;8.616;2023-02-18T13:57:58;13.90;99.90
7720;DHT22;3902;49.474;8.616;2023-02-18T14:00:34;13.90;99.90
7720;DHT22;3902;49.474;8.616;2023-02-18T14:03:30;13.90;99.90
7720;DHT22;3902;49.474;8.616;2023-02-18T14:05:58;13.90;99.90
7720;DHT22;3902;49.474;8.616;2023-02-18T14:08:33;13.90;99.90
7720;DHT22;3902;49.474;8.616;2023-02-18T14:11:23;13.80;99.90
7720;DHT22;3902;49.474;8.616;2023-02-18T14:13:54;13.90;99.90
7720;DHT22;3902;49.474;8.616;2023-02-18T14:16:21;13.80;99.90
7720;DHT22;3902;49.474;8.616;2023-02-18T14:18:57;13.80;99.90
7720;DHT22;3902;49.474;8.616;2023-02-18T14:21:35;13.80;99.90
7720;DHT22;3902;49.474;8.616;2023-02-18T14:24:03;13.80;99.90
7720;DHT22;3902;49.474;8.616;2023-02-18T14:26:35;13.80;99.90
7720;DHT22;3902;49.474;8.616;2023-02-18T14:29:12;13.70;99.90
7720;DHT22;3902;49.474;8.616;2023-02-18T14:31:45;13.70;99.90
7720;DHT22;3902;49.474;8.616;2023-02-18T14:37:09;13.70;99.90
7720;DHT22;3902;49.474;8.616;2023-02-18T14:40:19;13.70;99.90
7720;DHT22;3902;49.474;8.616;2023-02-18T14:45:34;13.70;99.90
7720;DHT22;3902;49.474;8.616;2023-02-18T14:50:48;13.50;99.90
7720;DHT22;3902;49.474;8.616;2023-02-18T14:53:19;13.50;99.90
7720;DHT22;3902;49.474;8.616;2023-02-18T14:55:48;13.50;99.90
7720;DHT22;3902;49.474;8.616;2023-02-18T14:58:29;13.50;99.90
7720;DHT22;3902;49.474;8.616;2023-02-18T15:00:54;13.50;99.90
7720;DHT22;3902;49.474;8.616;2023-02-18T15:03:20;13.50;99.90
7720;DHT22;3902;49.474;8.616;2023-02-18T15:05:48;13.50;99.90
7720;DHT22;3902;49.474;8.616;2023-02-18T15:08:20;13.40;99.90
7720;DHT22;3902;49.474;8.616;2023-02-18T15:11:06;13.40;99.90
7720;DHT22;3902;49.474;8.616;2023-02-18T15:13:37;13.40;99.90
7720;DHT22;3902;49.474;8.616;2023-02-18T15:16:08;13.40;99.90
7720;DHT22;3902;49.474;8.616;2023-02-18T15:18:41;13.40;99.90
7720;DHT22;3902;49.474;8.616;2023-02-18T15:21:26;13.40;99.90
7720;DHT22;3902;49.474;8.616;2023-02-18T15:23:53;13.30;99.90
7720;DHT22;3902;49.474;8.616;2023-02-18T15:26:19;13.30;99.90
7720;DHT22;3902;49.474;8.616;2023-02-18T15:31:29;13.30;99.90
7720;DHT22;3902;49.474;8.616;2023-02-18T15:33:54;13.30;99.90
7720;DHT22;3902;49.474;8.616;2023-02-18T15:36:20;13.20;99.90
7720;DHT22;3902;49.474;8.616;2023-02-18T15:38:46;13.20;99.90
7720;DHT22;3902;49.474;8.616;2023-02-18T15:41:14;13.20;99.90
7720;DHT22;3902;49.474;8.616;2023-02-18T15:43:54;13.10;99.90
7720;DHT22;3902;49.474;8.616;2023-02-18T15:46:21;13.10;99.90
7720;DHT22;3902;49.474;8.616;2023-02-18T15:48:50;13.10;99.90
7720;DHT22;3902;49.474;8.616;2023-02-18T15:51:36;13.10;99.90
7720;DHT22;3902;49.474;8.616;2023-02-18T15:54:02;13.10;99.90
7720;DHT22;3902;49.474;8.616;2023-02-18T15:56:29;13.00;99.90
7720;DHT22;3902;49.474;8.616;2023-02-18T16:04:36;12.80;99.90
7720;DHT22;3902;49.474;8.616;2023-02-18T16:07:24;12.80;99.90
7720;DHT22;3902;49.474;8.616;2023-02-18T16:12:36;12.80;99.90
7720;DHT22;3902;49.474;8.616;2023-02-18T16:15:04;12.80;99.90
7720;DHT22;3902;49.474;8.616;2023-02-18T16:17:29;12.80;99.90
7720;DHT22;3902;49.474;8.616;2023-02-18T16:19:56;12.80;99.90
7720;DHT22;3902;49.474;8.616;2023-02-18T16:22:26;12.80;99.90
7720;DHT22;3902;49.474;8.616;2023-02-18T16:25:00;12.70;99.90
7720;DHT22;3902;49.474;8.616;2023-02-18T16:27:35;12.70;99.90
7720;DHT22;3902;49.474;8.616;2023-02-18T16:30:22;12.70;99.90
7720;DHT22;3902;49.474;8.616;2023-02-18T16:32:48;12.70;99.90
7720;DHT22;3902;49.474;8.616;2023-02-18T16:35:14;12.70;99.90
7720;DHT22;3902;49.474;8.616;2023-02-18T16:37:41;12.60;99.90
7720;DHT22;3902;49.474;8.616;2023-02-18T16:40:29;12.60;99.90
7720;DHT22;3902;49.474;8.616;2023-02-18T16:42:58;12.60;99.90
7720;DHT22;3902;49.474;8.616;2023-02-18T16:45:36;12.50;99.90
7720;DHT22;3902;49.474;8.616;2023-02-18T16:48:03;12.60;99.90
7720;DHT22;3902;49.474;8.616;2023-02-18T16:50:31;12.50;99.90
7720;DHT22;3902;49.474;8.616;2023-02-18T16:52:57;12.50;99.90
7720;DHT22;3902;49.474;8.616;2023-02-18T16:55:26;12.50;99.90
7720;DHT22;3902;49.474;8.616;2023-02-18T16:57:52;12.50;99.90
7720;DHT22;3902;49.474;8.616;2023-02-18T17:00:18;12.40;99.90
7720;DHT22;3902;49.474;8.616;2023-02-18T17:02:47;12.40;99.90
7720;DHT22;3902;49.474;8.616;2023-02-18T17:05:19;12.40;99.90
7720;DHT22;3902;49.474;8.616;2023-02-18T17:07:45;12.50;99.90
7720;DHT22;3902;49.474;8.616;2023-02-18T17:10:11;12.40;99.90
7720;DHT22;3902;49.474;8.616;2023-02-18T17:12:36;12.40;99.90
7720;DHT22;3902;49.474;8.616;2023-02-18T17:15:39;12.40;99.90
7720;DHT22;3902;49.474;8.616;2023-02-18T17:18:06;12.30;99.90
7720;DHT22;3902;49.474;8.616;2023-02-18T17:20:32;12.30;99.90
7720;DHT22;3902;49.474;8.616;2023-02-18T17:22:58;12.30;99.90
7720;DHT22;3902;49.474;8.616;2023-02-18T17:25:35;12.30;99.90
7720;DHT22;3902;49.474;8.616;2023-02-18T17:28:02;12.20;99.90
7720;DHT22;3902;49.474;8.616;2023-02-18T17:30:29;12.20;99.90
7720;DHT22;3902;49.474;8.616;2023-02-18T17:32:58;12.10;99.90
7720;DHT22;3902;49.474;8.616;2023-02-18T17:35:24;12.10;99.90
7720;DHT22;3902;49.474;8.616;2023-02-18T17:37:50;12.10;99.90
7720;DHT22;3902;49.474;8.616;2023-02-18T17:40:21;12.10;99.90
7720;DHT22;3902;49.474;8.616;2023-02-18T17:42:47;12.10;99.90
7720;DHT22;3902;49.474;8.616;2023-02-18T17:45:20;12.10;99.90
7720;DHT22;3902;49.474;8.616;2023-02-18T17:47:47;12.10;99.90
7720;DHT22;3902;49.474;8.616;2023-02-18T17:50:13;12.10;99.90
7720;DHT22;3902;49.474;8.616;2023-02-18T17:52:39;12.10;99.90
7720;DHT22;3902;49.474;8.616;2023-02-18T17:55:26;12.10;99.90
7720;DHT22;3902;49.474;8.616;2023-02-18T17:57:52;12.10;99.90
7720;DHT22;3902;49.474;8.616;2023-02-18T18:00:35;12.10;99.90
7720;DHT22;3902;49.474;8.616;2023-02-18T18:03:01;12.10;99.90
7720;DHT22;3902;49.474;8.616;2023-02-18T18:05:30;12.00;99.90
7720;DHT22;3902;49.474;8.616;2023-02-18T18:07:59;12.00;99.90
7720;DHT22;3902;49.474;8.616;2023-02-18T18:10:27;12.00;99.90
7720;DHT22;3902;49.474;8.616;2023-02-18T18:13:03;12.00;99.90